createdAt,value
2023-07-01T00:01:12.063Z,21.00
2023-07-01T00:03:40.062Z,21.00
2023-07-01T00:06:07.276Z,21.00
2023-07-01T00:08:34.710Z,21.00
2023-07-01T00:11:02.346Z,21.00
2023-07-01T00:13:33.667Z,21.00
2023-07-01T00:16:01.358Z,21.00
2023-07-01T00:18:28.771Z,21.00
2023-07-01T00:20:56.324Z,21.00
2023-07-01T00:23:26.504Z,21.00
2023-07-01T00:25:54.180Z,21.00
2023-07-01T00:28:22.069Z,21.00
2023-07-01T00:30:49.702Z,20.90
2023-07-01T00:33:17.851Z,20.90
2023-07-01T00:35:48.821Z,20.80
2023-07-01T00:38:16.065Z,20.80
2023-07-01T00:40:43.594Z,20.70
2023-07-01T00:43:10.929Z,20.70
2023-07-01T00:45:38.185Z,20.70
2023-07-01T00:48:06.045Z,20.70
2023-07-01T00:50:33.543Z,20.60
2023-07-01T00:53:00.780Z,20.60
2023-07-01T00:55:28.173Z,20.50
2023-07-01T00:57:55.748Z,20.40
2023-07-01T01:00:23.262Z,20.40
2023-07-01T01:02:56.803Z,20.30
2023-07-01T01:05:29.676Z,20.40
2023-07-01T01:08:15.968Z,20.30
2023-07-01T01:10:43.725Z,20.40
2023-07-01T01:13:11.183Z,20.30
2023-07-01T01:15:38.350Z,20.40
2023-07-01T01:18:06.385Z,20.30
2023-07-01T01:20:34.792Z,20.30
2023-07-01T01:23:15.261Z,20.30
2023-07-01T01:25:50.569Z,20.30
2023-07-01T01:28:19.062Z,20.30
2023-07-01T01:30:46.455Z,20.30
2023-07-01T01:33:13.905Z,20.30
2023-07-01T01:35:41.787Z,20.20
2023-07-01T01:38:21.336Z,20.30
2023-07-01T01:40:58.350Z,20.30
2023-07-01T01:44:03.543Z,20.20
2023-07-01T01:46:30.773Z,20.20
2023-07-01T01:48:58.516Z,20.10
2023-07-01T01:51:25.767Z,20.00
2023-07-01T01:53:53.539Z,20.10
2023-07-01T01:56:21.183Z,20.10
2023-07-01T01:58:48.963Z,20.00
2023-07-01T02:01:17.318Z,20.00
2023-07-01T02:03:46.263Z,20.00
2023-07-01T02:06:14.934Z,20.00
2023-07-01T02:08:42.078Z,20.00
2023-07-01T02:11:09.202Z,20.10
2023-07-01T02:13:36.370Z,20.00
2023-07-01T02:16:03.614Z,20.00
2023-07-01T02:18:30.776Z,20.00
2023-07-01T02:20:58.092Z,19.90
2023-07-01T02:23:33.033Z,19.90
2023-07-01T02:26:00.234Z,20.00
2023-07-01T02:28:28.025Z,19.90
2023-07-01T02:30:56.115Z,20.00
2023-07-01T02:33:23.373Z,20.00
2023-07-01T02:35:50.492Z,20.00
2023-07-01T02:38:17.839Z,20.10
2023-07-01T02:40:45.186Z,20.00
2023-07-01T02:43:12.587Z,20.00
2023-07-01T02:45:39.729Z,20.10
2023-07-01T02:48:07.136Z,20.10
2023-07-01T02:50:34.270Z,20.10
2023-07-01T02:53:01.721Z,20.00
2023-07-01T02:55:31.333Z,20.00
2023-07-01T02:57:58.559Z,20.10
2023-07-01T03:00:25.768Z,20.10
2023-07-01T03:02:52.986Z,20.10
2023-07-01T03:05:24.967Z,20.10
2023-07-01T03:07:54.023Z,20.10
2023-07-01T03:10:22.134Z,20.10
2023-07-01T03:12:49.717Z,20.10
2023-07-01T03:15:16.906Z,20.10
2023-07-01T03:17:44.299Z,20.10
2023-07-01T03:20:24.477Z,20.20
2023-07-01T03:22:52.582Z,20.10
2023-07-01T03:25:19.872Z,20.10
2023-07-01T03:27:48.547Z,20.10
2023-07-01T03:30:16.717Z,20.10
2023-07-01T03:32:47.363Z,20.10
2023-07-01T03:35:15.170Z,20.10
2023-07-01T03:37:43.293Z,20.10
2023-07-01T03:40:13.604Z,20.10
2023-07-01T03:42:44.154Z,20.10
2023-07-01T03:45:11.711Z,20.10
2023-07-01T03:47:39.902Z,20.20
2023-07-01T03:50:10.754Z,20.20
2023-07-01T03:52:39.885Z,20.20
2023-07-01T03:55:09.401Z,20.20
2023-07-01T03:57:36.744Z,20.20
2023-07-01T04:00:34.102Z,20.20
2023-07-01T04:03:07.344Z,20.30
2023-07-01T04:05:35.632Z,20.30
2023-07-01T04:08:03.195Z,20.30
2023-07-01T04:10:30.393Z,20.40
2023-07-01T04:12:59.428Z,20.50
2023-07-01T04:15:26.569Z,20.50
2023-07-01T04:17:53.943Z,20.50
2023-07-01T04:20:21.191Z,20.50
2023-07-01T04:22:49.174Z,20.50
2023-07-01T04:25:16.707Z,20.50
2023-07-01T04:27:44.402Z,20.60
2023-07-01T04:30:13.678Z,20.60
2023-07-01T04:32:41.268Z,20.60
2023-07-01T04:35:08.699Z,20.60
2023-07-01T04:37:38.360Z,20.60
2023-07-01T04:40:08.413Z,20.70
2023-07-01T04:42:35.906Z,20.60
2023-07-01T04:45:03.315Z,20.60
2023-07-01T04:47:31.192Z,20.60
2023-07-01T04:49:58.444Z,20.70
2023-07-01T04:52:25.935Z,20.70
2023-07-01T04:54:54.059Z,20.70
2023-07-01T04:57:21.409Z,20.80
2023-07-01T04:59:48.629Z,20.80
2023-07-01T05:02:15.985Z,20.80
2023-07-01T05:04:43.297Z,20.80
2023-07-01T05:07:11.804Z,20.80
2023-07-01T05:09:39.086Z,20.80
2023-07-01T05:12:08.071Z,20.80
2023-07-01T05:14:35.769Z,20.90
2023-07-01T05:17:03.058Z,20.90
2023-07-01T05:19:30.389Z,20.90
2023-07-01T05:21:57.592Z,21.00
2023-07-01T05:24:25.630Z,21.00
2023-07-01T05:26:52.988Z,21.00
2023-07-01T05:29:22.205Z,21.00
2023-07-01T05:31:50.395Z,21.10
2023-07-01T05:34:18.110Z,21.10
2023-07-01T05:36:46.047Z,21.00
2023-07-01T05:39:14.099Z,20.80
2023-07-01T05:41:42.311Z,20.80
2023-07-01T05:44:09.742Z,20.80
2023-07-01T05:46:37.359Z,20.90
2023-07-01T05:49:05.035Z,21.00
2023-07-01T05:51:33.634Z,21.10
2023-07-01T05:54:01.001Z,21.30
2023-07-01T05:56:28.721Z,21.50
2023-07-01T05:58:55.901Z,21.60
2023-07-01T06:01:23.108Z,21.80
2023-07-01T06:03:50.325Z,22.00
2023-07-01T06:06:17.754Z,22.20
2023-07-01T06:08:47.448Z,22.30
2023-07-01T06:11:14.978Z,22.40
2023-07-01T06:13:50.019Z,22.50
2023-07-01T06:16:17.860Z,22.40
2023-07-01T06:18:45.317Z,22.40
2023-07-01T06:21:12.691Z,22.40
2023-07-01T06:23:40.076Z,22.40
2023-07-01T06:26:07.997Z,22.50
2023-07-01T06:28:35.514Z,22.50
2023-07-01T06:31:10.436Z,22.60
2023-07-01T06:33:40.093Z,22.70
2023-07-01T06:36:07.999Z,22.90
2023-07-01T06:38:35.269Z,23.10
2023-07-01T06:41:02.700Z,23.20
2023-07-01T06:43:29.884Z,23.30
2023-07-01T06:45:57.482Z,23.30
2023-07-01T06:48:24.903Z,23.40
2023-07-01T06:50:52.168Z,23.40
2023-07-01T06:53:19.513Z,23.60
2023-07-01T06:55:46.746Z,23.90
2023-07-01T06:58:13.990Z,24.20
2023-07-01T07:00:41.271Z,24.40
2023-07-01T07:03:08.927Z,24.50
2023-07-01T07:05:36.282Z,24.70
2023-07-01T07:08:03.665Z,24.70
2023-07-01T07:10:31.433Z,24.90
2023-07-01T07:13:00.696Z,25.00
2023-07-01T07:15:28.127Z,25.00
2023-07-01T07:17:55.383Z,25.00
2023-07-01T07:20:22.804Z,25.00
2023-07-01T07:22:49.964Z,25.00
2023-07-01T07:25:18.319Z,24.90
2023-07-01T07:27:46.382Z,25.20
2023-07-01T07:30:14.679Z,25.40
2023-07-01T07:32:43.555Z,25.60
2023-07-01T07:35:10.840Z,25.70
2023-07-01T07:37:38.416Z,26.00
2023-07-01T07:40:07.292Z,26.20
2023-07-01T07:42:34.935Z,26.40
2023-07-01T07:45:03.150Z,26.50
2023-07-01T07:47:32.691Z,26.70
2023-07-01T07:50:01.391Z,26.80
2023-07-01T07:52:29.040Z,26.80
2023-07-01T07:54:56.270Z,26.80
2023-07-01T07:57:24.289Z,26.90
2023-07-01T07:59:51.471Z,26.90
2023-07-01T08:02:18.675Z,26.90
2023-07-01T08:04:47.381Z,27.00
2023-07-01T08:07:14.804Z,27.20
2023-07-01T08:09:41.989Z,27.30
2023-07-01T08:12:11.424Z,27.40
2023-07-01T08:14:40.208Z,27.60
2023-07-01T08:17:07.673Z,27.70
2023-07-01T08:19:35.186Z,27.90
2023-07-01T08:22:02.664Z,28.00
2023-07-01T08:24:30.406Z,28.20
2023-07-01T08:26:57.866Z,28.50
2023-07-01T08:29:25.734Z,28.70
2023-07-01T08:31:53.193Z,28.90
2023-07-01T08:34:20.435Z,29.00
2023-07-01T08:36:49.052Z,29.30
2023-07-01T08:39:16.635Z,29.40
2023-07-01T08:41:54.168Z,29.60
2023-07-01T08:44:22.661Z,29.80
2023-07-01T08:46:54.036Z,29.90
2023-07-01T08:49:23.322Z,30.10
2023-07-01T08:51:57.241Z,30.20
2023-07-01T08:54:24.605Z,30.40
2023-07-01T08:56:51.827Z,30.60
2023-07-01T08:59:40.329Z,30.60
2023-07-01T09:02:07.812Z,30.70
2023-07-01T09:04:39.373Z,30.80
2023-07-01T09:07:07.104Z,30.80
2023-07-01T09:09:35.352Z,31.00
2023-07-01T09:12:02.499Z,30.90
2023-07-01T09:15:00.569Z,30.90
2023-07-01T09:17:34.640Z,31.00
2023-07-01T09:20:04.343Z,31.00
2023-07-01T09:22:31.874Z,30.90
2023-07-01T09:24:59.033Z,31.00
2023-07-01T09:27:40.629Z,31.00
2023-07-01T09:30:26.602Z,31.10
2023-07-01T09:33:10.501Z,31.00
2023-07-01T09:35:45.224Z,30.90
2023-07-01T09:38:16.031Z,30.80
2023-07-01T09:40:43.851Z,30.80
2023-07-01T09:43:11.221Z,30.70
2023-07-01T09:45:38.515Z,30.60
2023-07-01T09:48:15.965Z,30.50
2023-07-01T09:50:43.261Z,30.50
2023-07-01T09:53:21.258Z,30.40
2023-07-01T09:55:49.130Z,30.30
2023-07-01T09:58:17.214Z,30.20
2023-07-01T10:00:46.256Z,30.10
2023-07-01T10:03:14.119Z,30.00
2023-07-01T10:05:44.615Z,29.80
2023-07-01T10:08:13.636Z,29.70
2023-07-01T10:10:41.081Z,29.70
2023-07-01T10:13:11.201Z,29.50
2023-07-01T10:15:40.363Z,29.50
2023-07-01T10:18:23.646Z,29.50
2023-07-01T10:20:54.434Z,29.30
2023-07-01T10:23:33.748Z,29.30
2023-07-01T10:26:01.301Z,29.10
2023-07-01T10:28:28.550Z,28.90
2023-07-01T10:30:55.671Z,28.70
2023-07-01T10:33:46.045Z,28.40
2023-07-01T10:36:22.871Z,28.00
2023-07-01T10:38:50.179Z,27.70
2023-07-01T10:41:20.915Z,27.30
2023-07-01T10:43:48.051Z,27.00
2023-07-01T10:46:21.028Z,26.70
2023-07-01T10:49:06.947Z,26.40
2023-07-01T10:51:54.481Z,26.00
2023-07-01T10:54:31.351Z,25.60
2023-07-01T10:57:18.792Z,25.50
2023-07-01T10:59:46.695Z,25.50
2023-07-01T11:02:37.651Z,25.40
2023-07-01T11:05:08.858Z,25.20
2023-07-01T11:07:38.188Z,25.10
2023-07-01T11:10:09.220Z,25.10
2023-07-01T11:12:37.124Z,24.90
2023-07-01T11:15:04.552Z,24.60
2023-07-01T11:17:31.977Z,24.50
2023-07-01T11:20:02.259Z,24.50
2023-07-01T11:22:29.508Z,24.50
2023-07-01T11:25:06.032Z,24.60
2023-07-01T11:27:33.544Z,24.70
2023-07-01T11:30:00.884Z,24.80
2023-07-01T11:32:28.137Z,24.70
2023-07-01T11:34:58.419Z,24.80
2023-07-01T11:37:26.818Z,24.90
2023-07-01T11:39:57.114Z,25.10
2023-07-01T11:42:26.913Z,25.00
2023-07-01T11:44:54.491Z,25.00
2023-07-01T11:47:22.251Z,25.10
2023-07-01T11:49:49.808Z,25.40
2023-07-01T11:52:24.856Z,25.60
2023-07-01T11:54:54.172Z,25.70
2023-07-01T11:57:22.322Z,25.90
2023-07-01T11:59:53.864Z,25.90
2023-07-01T12:02:28.713Z,25.80
2023-07-01T12:04:56.197Z,25.70
2023-07-01T12:07:23.663Z,25.80
2023-07-01T12:09:54.445Z,26.00
2023-07-01T12:12:35.524Z,26.20
2023-07-01T12:15:14.113Z,26.40
2023-07-01T12:17:41.476Z,26.60
2023-07-01T12:20:11.441Z,26.70
2023-07-01T12:22:39.545Z,26.90
2023-07-01T12:25:06.973Z,27.00
2023-07-01T12:27:36.339Z,27.10
2023-07-01T12:30:11.095Z,27.20
2023-07-01T12:32:40.491Z,27.40
2023-07-01T12:35:11.704Z,27.50
2023-07-01T12:37:42.632Z,27.50
2023-07-01T12:40:10.449Z,27.60
2023-07-01T12:42:38.187Z,27.70
2023-07-01T12:45:07.267Z,27.70
2023-07-01T12:47:34.611Z,27.70
2023-07-01T12:50:02.161Z,27.80
2023-07-01T12:52:39.773Z,27.90
2023-07-01T12:55:11.071Z,27.90
2023-07-01T12:57:38.420Z,28.00
2023-07-01T13:00:07.526Z,28.10
2023-07-01T13:02:36.044Z,28.20
2023-07-01T13:05:05.185Z,28.40
2023-07-01T13:07:33.269Z,28.50
2023-07-01T13:10:01.924Z,28.70
2023-07-01T13:12:32.483Z,28.80
2023-07-01T13:15:01.809Z,28.80
2023-07-01T13:17:46.914Z,28.90
2023-07-01T13:20:14.259Z,29.00
2023-07-01T13:22:41.351Z,29.00
2023-07-01T13:25:10.564Z,29.00
2023-07-01T13:27:40.284Z,28.80
2023-07-01T13:30:08.326Z,28.80
2023-07-01T13:32:36.023Z,28.70
2023-07-01T13:35:04.714Z,28.70
2023-07-01T13:37:33.485Z,28.70
2023-07-01T13:40:00.777Z,28.70
2023-07-01T13:42:28.276Z,28.80
2023-07-01T13:44:57.322Z,28.80
2023-07-01T13:47:47.707Z,28.80
2023-07-01T13:50:25.386Z,28.80
2023-07-01T13:52:58.178Z,28.80
2023-07-01T13:55:29.710Z,28.80
2023-07-01T13:57:57.059Z,28.70
2023-07-01T14:00:43.901Z,28.50
2023-07-01T14:03:46.236Z,28.40
2023-07-01T14:06:17.402Z,28.40
2023-07-01T14:08:44.956Z,28.50
2023-07-01T14:11:21.947Z,28.50
2023-07-01T14:13:52.396Z,28.50
2023-07-01T14:16:21.061Z,28.50
2023-07-01T14:18:48.419Z,28.50
2023-07-01T14:21:19.667Z,28.50
2023-07-01T14:23:47.824Z,28.40
2023-07-01T14:26:27.283Z,28.30
2023-07-01T14:28:54.641Z,28.20
2023-07-01T14:31:33.493Z,28.20
2023-07-01T14:34:04.213Z,28.20
2023-07-01T14:36:34.316Z,28.00
2023-07-01T14:39:05.328Z,27.80
2023-07-01T14:41:34.007Z,27.70
2023-07-01T14:44:21.450Z,27.70
2023-07-01T14:46:48.642Z,27.60
2023-07-01T14:49:16.016Z,27.60
2023-07-01T14:51:43.319Z,27.60
2023-07-01T14:54:11.071Z,27.80
2023-07-01T14:56:38.666Z,28.00
2023-07-01T14:59:05.798Z,28.20
2023-07-01T15:01:33.071Z,28.30
2023-07-01T15:04:00.670Z,28.30
2023-07-01T15:06:27.915Z,28.40
2023-07-01T15:08:55.020Z,28.20
2023-07-01T15:11:22.208Z,28.10
2023-07-01T15:13:50.035Z,28.10
2023-07-01T15:16:18.366Z,28.00
2023-07-01T15:18:46.368Z,28.10
2023-07-01T15:21:13.541Z,28.20
2023-07-01T15:23:41.684Z,28.30
2023-07-01T15:26:08.875Z,28.30
2023-07-01T15:28:36.218Z,28.30
2023-07-01T15:31:07.438Z,28.40
2023-07-01T15:33:35.098Z,28.30
2023-07-01T15:36:02.497Z,28.30
2023-07-01T15:38:30.037Z,28.30
2023-07-01T15:40:57.430Z,28.20
2023-07-01T15:43:24.495Z,28.10
2023-07-01T15:45:53.278Z,28.10
2023-07-01T15:48:21.028Z,27.90
2023-07-01T15:50:48.512Z,27.90
2023-07-01T15:53:15.703Z,27.80
2023-07-01T15:55:43.024Z,27.80
2023-07-01T15:58:10.235Z,27.70
2023-07-01T16:00:38.591Z,27.70
2023-07-01T16:03:06.030Z,27.60
2023-07-01T16:05:33.297Z,27.60
2023-07-01T16:08:02.277Z,27.70
2023-07-01T16:10:31.627Z,27.60
2023-07-01T16:13:05.025Z,27.50
2023-07-01T16:16:04.376Z,27.60
2023-07-01T16:18:49.124Z,27.60
2023-07-01T16:21:17.418Z,27.50
2023-07-01T16:23:53.718Z,27.40
2023-07-01T16:26:44.108Z,27.30
2023-07-01T16:29:19.169Z,27.30
2023-07-01T16:31:46.931Z,27.30
2023-07-01T16:34:14.874Z,27.30
2023-07-01T16:36:45.804Z,27.30
2023-07-01T16:39:14.504Z,27.30
2023-07-01T16:41:41.992Z,27.20
2023-07-01T16:44:09.736Z,27.20
2023-07-01T16:46:38.680Z,27.20
2023-07-01T16:49:07.513Z,27.10
2023-07-01T16:51:40.777Z,27.20
2023-07-01T16:54:46.617Z,27.10
2023-07-01T16:57:19.773Z,27.10
2023-07-01T16:59:53.588Z,27.10
2023-07-01T17:08:23.469Z,26.90
2023-07-01T17:10:51.053Z,26.90
2023-07-01T17:13:24.737Z,26.90
2023-07-01T17:15:53.729Z,26.80
2023-07-01T17:18:22.640Z,26.80
2023-07-01T17:20:49.999Z,26.80
2023-07-01T17:23:17.626Z,26.80
2023-07-01T17:25:46.033Z,26.80
2023-07-01T17:28:13.978Z,26.80
2023-07-01T17:30:41.611Z,26.70
2023-07-01T17:33:17.575Z,26.70
2023-07-01T17:35:44.965Z,26.60
2023-07-01T17:38:12.277Z,26.50
2023-07-01T17:40:40.486Z,26.50
2023-07-01T17:43:07.995Z,26.40
2023-07-01T17:45:35.252Z,26.40
2023-07-01T17:48:03.554Z,26.30
2023-07-01T17:50:32.630Z,26.20
2023-07-01T17:53:00.659Z,26.20
2023-07-01T17:55:30.898Z,26.10
2023-07-01T17:58:01.195Z,26.10
2023-07-01T18:00:28.468Z,26.00
2023-07-01T18:02:56.256Z,25.90
2023-07-01T18:05:24.059Z,25.80
2023-07-01T18:07:53.560Z,25.70
2023-07-01T18:10:22.554Z,25.70
2023-07-01T18:12:49.792Z,25.70
2023-07-01T18:15:17.810Z,25.50
2023-07-01T18:17:46.386Z,25.50
2023-07-01T18:20:23.829Z,25.40
2023-07-01T18:22:54.070Z,25.30
2023-07-01T18:25:25.415Z,25.20
2023-07-01T18:27:55.442Z,25.20
2023-07-01T18:30:23.928Z,25.20
2023-07-01T18:32:52.463Z,25.10
2023-07-01T18:35:20.904Z,25.10
2023-07-01T18:37:48.411Z,25.10
2023-07-01T18:40:28.500Z,25.00
2023-07-01T18:45:48.111Z,25.00
2023-07-01T18:50:59.921Z,25.00
2023-07-01T18:56:09.038Z,24.80
2023-07-01T18:58:36.593Z,24.70
2023-07-01T19:01:03.814Z,24.70
2023-07-01T19:03:31.407Z,24.70
2023-07-01T19:05:58.800Z,24.60
2023-07-01T19:08:53.321Z,24.60
2023-07-01T19:11:22.544Z,24.50
2023-07-01T19:13:50.035Z,24.40
2023-07-01T19:16:26.817Z,24.40
2023-07-01T19:18:54.057Z,24.30
2023-07-01T19:21:22.198Z,24.20
2023-07-01T19:23:49.841Z,24.20
2023-07-01T19:26:17.369Z,24.10
2023-07-01T19:28:45.789Z,24.10
2023-07-01T19:31:14.605Z,24.00
2023-07-01T19:33:42.754Z,24.00
2023-07-01T19:36:11.181Z,24.00
2023-07-01T19:38:38.485Z,24.00
2023-07-01T19:41:06.017Z,24.00
2023-07-01T19:43:34.282Z,24.00
2023-07-01T19:46:01.738Z,24.00
2023-07-01T19:48:29.151Z,23.90
2023-07-01T19:50:56.741Z,23.70
2023-07-01T19:53:25.073Z,23.70
2023-07-01T19:55:52.739Z,23.70
2023-07-01T19:58:25.246Z,23.60
2023-07-01T20:00:52.648Z,23.50
2023-07-01T20:03:20.190Z,23.50
2023-07-01T20:05:50.557Z,23.60
2023-07-01T20:08:27.152Z,23.60
2023-07-01T20:11:03.275Z,23.70
2023-07-01T20:13:30.795Z,23.70
2023-07-01T20:16:01.046Z,23.70
2023-07-01T20:18:30.076Z,23.70
2023-07-01T20:20:57.408Z,23.60
2023-07-01T20:23:25.226Z,23.60
2023-07-01T20:25:52.565Z,23.60
2023-07-01T20:28:20.254Z,23.60
2023-07-01T20:30:47.761Z,23.60
2023-07-01T20:33:15.203Z,23.60
2023-07-01T20:35:44.118Z,23.60
2023-07-01T20:38:11.399Z,23.50
2023-07-01T20:40:41.089Z,23.50
2023-07-01T20:43:22.099Z,23.50
2023-07-01T20:49:08.432Z,23.50
2023-07-01T20:51:39.886Z,23.40
2023-07-01T20:55:20.148Z,23.40
2023-07-01T21:00:41.956Z,23.40
2023-07-01T21:03:09.546Z,23.40
2023-07-01T21:05:38.323Z,23.30
2023-07-01T21:08:07.647Z,23.30
2023-07-01T21:10:35.436Z,23.20
2023-07-01T21:13:04.411Z,23.20
2023-07-01T21:15:35.417Z,23.20
2023-07-01T21:18:03.128Z,23.20
2023-07-01T21:20:30.448Z,23.20
2023-07-01T21:23:02.644Z,23.20
2023-07-01T21:29:00.039Z,23.20
2023-07-01T21:31:30.239Z,23.20
2023-07-01T21:33:57.762Z,23.20
2023-07-01T21:36:25.225Z,23.10
2023-07-01T21:38:52.680Z,23.10
2023-07-01T21:41:21.961Z,23.10
2023-07-01T21:43:49.463Z,23.00
2023-07-01T21:46:16.973Z,23.00
2023-07-01T21:48:44.399Z,23.00
2023-07-01T21:51:11.970Z,23.00
2023-07-01T21:53:41.116Z,22.90
2023-07-01T21:56:13.579Z,22.90
2023-07-01T21:59:01.139Z,22.90
2023-07-01T22:01:35.436Z,22.80
2023-07-01T22:04:04.377Z,22.70
2023-07-01T22:06:47.416Z,22.70
2023-07-01T22:09:29.354Z,22.70
2023-07-01T22:11:56.755Z,22.70
2023-07-01T22:14:24.364Z,22.70
2023-07-01T22:16:52.813Z,22.70
2023-07-01T22:19:20.101Z,22.60
2023-07-01T22:21:47.369Z,22.60
2023-07-01T22:24:14.704Z,22.60
2023-07-01T22:26:41.852Z,22.70
2023-07-01T22:29:10.139Z,22.70
2023-07-01T22:31:37.787Z,22.70
2023-07-01T22:34:06.533Z,22.70
2023-07-01T22:36:34.142Z,22.70
2023-07-01T22:39:02.105Z,22.80
2023-07-01T22:41:29.248Z,22.80
2023-07-01T22:43:58.800Z,22.70
2023-07-01T22:46:26.508Z,22.60
2023-07-01T22:48:54.896Z,22.50
2023-07-01T22:51:22.171Z,22.50
2023-07-01T22:53:52.411Z,22.40
2023-07-01T22:56:23.398Z,22.50
2023-07-01T22:58:52.689Z,22.50
2023-07-01T23:01:20.471Z,22.50
2023-07-01T23:03:47.764Z,22.50
2023-07-01T23:06:15.116Z,22.50
2023-07-01T23:08:42.513Z,22.50
2023-07-01T23:11:09.900Z,22.50
2023-07-01T23:13:37.229Z,22.50
2023-07-01T23:16:04.593Z,22.50
2023-07-01T23:18:32.335Z,22.50
2023-07-01T23:20:59.940Z,22.50
2023-07-01T23:23:27.271Z,22.50
2023-07-01T23:25:54.633Z,22.50
2023-07-01T23:28:22.040Z,22.50
2023-07-01T23:30:49.800Z,22.50
2023-07-01T23:33:18.230Z,22.40
2023-07-01T23:35:45.551Z,22.40
2023-07-01T23:38:13.799Z,22.40
2023-07-01T23:40:41.232Z,22.50
2023-07-01T23:43:08.817Z,22.40
2023-07-01T23:45:36.345Z,22.40
2023-07-01T23:48:03.796Z,22.30
2023-07-01T23:50:32.597Z,22.30
2023-07-01T23:53:03.249Z,22.30
2023-07-01T23:55:30.651Z,22.30
2023-07-01T23:57:58.585Z,22.30
